createdAt,value
2022-12-04T00:00:47.073Z,22.23
2022-12-04T00:02:09.149Z,22.40
2022-12-04T00:03:31.317Z,20.83
2022-12-04T00:04:53.407Z,23.70
2022-12-04T00:06:20.316Z,22.00
2022-12-04T00:07:42.393Z,21.63
2022-12-04T00:09:05.540Z,22.43
2022-12-04T00:10:27.630Z,22.80
2022-12-04T00:11:49.776Z,23.27
2022-12-04T00:13:11.892Z,23.00
2022-12-04T00:14:34.488Z,22.27
2022-12-04T00:15:56.825Z,22.93
2022-12-04T00:17:18.904Z,23.20
2022-12-04T00:18:41.430Z,22.83
2022-12-04T00:20:04.523Z,22.10
2022-12-04T00:21:26.890Z,22.77
2022-12-04T00:22:48.913Z,22.07
2022-12-04T00:24:11.053Z,21.37
2022-12-04T00:25:37.914Z,24.00
2022-12-04T00:27:03.326Z,23.03
2022-12-04T00:28:25.341Z,21.93
2022-12-04T00:29:47.453Z,23.00
2022-12-04T00:31:12.643Z,22.77
2022-12-04T00:32:34.758Z,22.30
2022-12-04T00:33:57.099Z,22.43
2022-12-04T00:35:19.175Z,23.20
2022-12-04T00:36:41.309Z,23.03
2022-12-04T00:38:03.407Z,21.90
2022-12-04T00:39:25.489Z,22.17
2022-12-04T00:40:51.887Z,23.53
2022-12-04T00:42:13.949Z,23.63
2022-12-04T00:43:35.976Z,23.87
2022-12-04T00:44:58.043Z,23.40
2022-12-04T00:46:20.997Z,22.93
2022-12-04T00:47:43.151Z,22.47
2022-12-04T00:49:05.342Z,22.83
2022-12-04T00:50:27.417Z,22.37
2022-12-04T00:51:49.448Z,23.17
2022-12-04T00:53:12.642Z,23.20
2022-12-04T00:54:34.678Z,23.27
2022-12-04T00:55:56.761Z,23.10
2022-12-04T00:57:18.824Z,23.60
2022-12-04T00:58:41.596Z,23.73
2022-12-04T01:00:05.035Z,22.53
2022-12-04T01:01:28.690Z,22.90
2022-12-04T01:02:50.870Z,23.83
2022-12-04T01:04:12.964Z,22.53
2022-12-04T01:05:45.511Z,23.30
2022-12-04T01:07:07.545Z,22.10
2022-12-04T01:08:29.574Z,22.43
2022-12-04T01:09:51.725Z,24.67
2022-12-04T01:11:13.831Z,22.73
2022-12-04T01:12:36.801Z,23.33
2022-12-04T01:13:59.930Z,24.03
2022-12-04T01:15:22.030Z,23.90
2022-12-04T01:16:44.182Z,23.27
2022-12-04T01:18:06.336Z,22.53
2022-12-04T01:19:28.365Z,25.50
2022-12-04T01:20:52.462Z,23.57
2022-12-04T01:22:14.571Z,24.13
2022-12-04T01:23:36.666Z,22.73
2022-12-04T01:24:58.784Z,22.43
2022-12-04T01:26:20.969Z,23.40
2022-12-04T01:27:43.028Z,25.20
2022-12-04T01:29:05.157Z,23.70
2022-12-04T01:30:27.308Z,23.47
2022-12-04T01:31:49.473Z,23.97
2022-12-04T01:33:11.531Z,24.03
2022-12-04T01:34:33.574Z,23.60
2022-12-04T01:35:57.272Z,23.83
2022-12-04T01:37:19.358Z,25.47
2022-12-04T01:38:42.047Z,25.17
2022-12-04T01:40:05.056Z,22.93
2022-12-04T01:41:29.965Z,23.70
2022-12-04T01:42:51.989Z,24.50
2022-12-04T01:44:19.539Z,22.63
2022-12-04T01:46:00.544Z,25.07
2022-12-04T01:47:22.651Z,24.27
2022-12-04T01:48:51.806Z,23.27
2022-12-04T01:50:13.910Z,23.57
2022-12-04T01:51:40.667Z,23.57
2022-12-04T01:53:02.783Z,25.30
2022-12-04T01:54:31.297Z,24.73
2022-12-04T01:55:53.858Z,22.10
2022-12-04T01:57:21.520Z,23.40
2022-12-04T01:58:49.208Z,24.70
2022-12-04T02:00:14.330Z,24.20
2022-12-04T02:01:42.467Z,26.23
2022-12-04T02:03:04.779Z,24.67
2022-12-04T02:04:26.917Z,24.90
2022-12-04T02:05:48.947Z,22.37
2022-12-04T02:07:11.928Z,23.13
2022-12-04T02:08:35.966Z,23.00
2022-12-04T02:10:03.715Z,24.03
2022-12-04T02:11:31.602Z,22.77
2022-12-04T02:13:16.809Z,23.47
2022-12-04T02:14:41.356Z,22.87
2022-12-04T02:16:30.370Z,23.60
2022-12-04T02:18:04.433Z,22.47
2022-12-04T02:19:38.439Z,24.40
2022-12-04T02:21:10.611Z,24.40
2022-12-04T02:22:47.572Z,22.60
2022-12-04T02:24:12.332Z,26.47
2022-12-04T02:25:45.742Z,22.93
2022-12-04T02:27:41.283Z,21.77
2022-12-04T02:29:24.376Z,22.47
2022-12-04T02:30:47.656Z,24.23
2022-12-04T02:32:22.149Z,22.33
2022-12-04T02:33:58.070Z,23.30
2022-12-04T02:35:38.552Z,24.27
2022-12-04T02:37:08.425Z,23.60
2022-12-04T02:38:38.223Z,24.47
2022-12-04T02:40:05.191Z,23.27
2022-12-04T02:41:43.528Z,25.47
2022-12-04T02:43:17.766Z,23.67
2022-12-04T02:45:01.362Z,24.67
2022-12-04T02:46:35.414Z,25.17
2022-12-04T02:48:00.670Z,22.43
2022-12-04T02:49:28.058Z,24.27
2022-12-04T02:50:54.886Z,24.03
2022-12-04T02:52:22.517Z,24.57
2022-12-04T02:53:50.588Z,23.23
2022-12-04T02:55:44.569Z,23.37
2022-12-04T02:57:12.396Z,23.47
2022-12-04T02:58:44.570Z,24.83
2022-12-04T03:00:08.924Z,22.47
2022-12-04T03:01:36.161Z,23.90
2022-12-04T03:03:07.563Z,23.63
2022-12-04T03:04:33.480Z,22.30
2022-12-04T03:06:01.683Z,23.20
2022-12-04T03:07:42.480Z,23.50
2022-12-04T03:09:32.222Z,23.57
2022-12-04T03:10:57.867Z,23.80
2022-12-04T03:12:43.498Z,23.13
2022-12-04T03:14:29.358Z,23.97
2022-12-04T03:16:15.809Z,22.67
2022-12-04T03:18:01.933Z,23.17
2022-12-04T03:19:27.816Z,24.47
2022-12-04T03:20:56.433Z,23.20
2022-12-04T03:22:21.958Z,26.90
2022-12-04T03:24:10.329Z,23.33
2022-12-04T03:25:43.448Z,23.60
2022-12-04T03:27:14.217Z,23.17
2022-12-04T03:28:54.171Z,23.23
2022-12-04T03:30:19.409Z,23.63
2022-12-04T03:31:47.012Z,23.83
2022-12-04T03:33:19.950Z,23.97
2022-12-04T03:35:23.973Z,25.63
2022-12-04T03:37:00.528Z,22.70
2022-12-04T03:38:28.283Z,25.03
2022-12-04T03:39:56.107Z,23.60
2022-12-04T03:41:30.888Z,24.97
2022-12-04T03:43:14.584Z,22.93
2022-12-04T03:44:55.060Z,22.03
2022-12-04T03:46:39.395Z,22.77
2022-12-04T03:48:22.943Z,24.10
2022-12-04T03:49:57.965Z,22.07
2022-12-04T03:51:34.134Z,23.43
2022-12-04T03:53:02.231Z,24.03
2022-12-04T03:54:29.032Z,22.80
2022-12-04T03:56:05.090Z,21.10
2022-12-04T03:57:34.417Z,23.33
2022-12-04T03:59:00.909Z,24.17
2022-12-04T04:00:23.266Z,23.83
2022-12-04T04:01:49.437Z,24.07
2022-12-04T04:03:22.905Z,25.70
2022-12-04T04:04:50.338Z,24.67
2022-12-04T04:06:21.718Z,25.77
2022-12-04T04:08:22.875Z,25.40
2022-12-04T04:09:47.473Z,23.87
2022-12-04T04:11:16.747Z,24.17
2022-12-04T04:12:45.843Z,24.40
2022-12-04T04:14:52.338Z,24.80
2022-12-04T04:16:36.640Z,24.67
2022-12-04T04:18:20.050Z,22.57
2022-12-04T04:20:01.618Z,25.57
2022-12-04T04:21:46.369Z,22.93
2022-12-04T04:23:29.272Z,22.80
2022-12-04T04:24:56.384Z,23.70
2022-12-04T04:26:18.709Z,24.30
2022-12-04T04:27:40.749Z,25.00
2022-12-04T04:29:02.906Z,23.97
2022-12-04T04:30:26.561Z,25.07
2022-12-04T04:32:15.349Z,24.10
2022-12-04T04:33:54.521Z,23.53
2022-12-04T04:35:30.347Z,23.97
2022-12-04T04:37:07.698Z,23.10
2022-12-04T04:38:42.630Z,25.63
2022-12-04T04:40:31.183Z,24.23
2022-12-04T04:42:16.436Z,23.77
2022-12-04T04:43:51.822Z,22.73
2022-12-04T04:45:16.211Z,24.57
2022-12-04T04:46:43.056Z,24.63
2022-12-04T04:48:35.069Z,24.63
2022-12-04T04:50:01.790Z,23.67
2022-12-04T04:51:24.275Z,25.07
2022-12-04T04:52:50.820Z,24.03
2022-12-04T04:54:14.593Z,25.63
2022-12-04T04:55:37.127Z,24.37
2022-12-04T04:56:59.182Z,25.97
2022-12-04T04:58:21.793Z,24.93
2022-12-04T04:59:43.827Z,23.37
2022-12-04T05:01:12.016Z,22.33
2022-12-04T05:02:34.557Z,25.03
2022-12-04T05:03:56.674Z,25.03
2022-12-04T05:05:18.794Z,24.70
2022-12-04T05:06:41.016Z,23.90
2022-12-04T05:08:03.220Z,25.20
2022-12-04T05:09:26.333Z,23.57
2022-12-04T05:10:48.644Z,25.17
2022-12-04T05:12:10.676Z,25.33
2022-12-04T05:13:33.443Z,24.10
2022-12-04T05:14:55.542Z,24.97
2022-12-04T05:16:17.674Z,26.97
2022-12-04T05:17:39.745Z,25.40
2022-12-04T05:19:20.322Z,24.50
2022-12-04T05:20:42.337Z,23.53
2022-12-04T05:22:04.563Z,25.40
2022-12-04T05:23:26.638Z,26.00
2022-12-04T05:24:48.803Z,26.23
2022-12-04T05:26:10.983Z,24.80
2022-12-04T05:27:33.675Z,25.07
2022-12-04T05:28:55.722Z,24.60
2022-12-04T05:30:17.966Z,24.57
2022-12-04T05:31:40.091Z,25.43
2022-12-04T05:33:02.395Z,24.50
2022-12-04T05:34:24.500Z,24.17
2022-12-04T05:35:58.426Z,23.00
2022-12-04T05:37:21.230Z,23.50
2022-12-04T05:38:43.323Z,24.73
2022-12-04T05:40:06.926Z,25.17
2022-12-04T05:41:28.975Z,23.67
2022-12-04T05:42:51.309Z,25.80
2022-12-04T05:44:13.553Z,24.13
2022-12-04T05:45:35.619Z,25.40
2022-12-04T05:46:57.676Z,23.80
2022-12-04T05:48:19.938Z,24.57
2022-12-04T05:49:41.996Z,24.33
2022-12-04T05:51:08.991Z,24.17
2022-12-04T05:52:31.018Z,23.90
2022-12-04T05:53:53.138Z,26.07
2022-12-04T05:55:15.282Z,22.47
2022-12-04T05:56:37.396Z,24.00
2022-12-04T05:57:59.759Z,24.67
2022-12-04T05:59:22.114Z,26.47
2022-12-04T06:00:44.134Z,25.40
2022-12-04T06:02:06.233Z,24.37
2022-12-04T06:03:28.439Z,26.23
2022-12-04T06:04:51.015Z,24.03
2022-12-04T06:06:20.734Z,23.37
2022-12-04T06:07:43.831Z,24.73
2022-12-04T06:09:08.172Z,25.07
2022-12-04T06:10:30.197Z,25.57
2022-12-04T06:11:52.265Z,23.93
2022-12-04T06:13:14.301Z,23.40
2022-12-04T06:14:39.562Z,23.50
2022-12-04T06:16:02.126Z,23.30
2022-12-04T06:17:24.324Z,22.97
2022-12-04T06:18:53.885Z,25.87
2022-12-04T06:20:16.520Z,24.97
2022-12-04T06:21:40.383Z,25.47
2022-12-04T06:23:02.508Z,23.83
2022-12-04T06:24:25.046Z,25.97
2022-12-04T06:25:47.092Z,24.53
2022-12-04T06:27:27.130Z,23.80
2022-12-04T06:28:49.639Z,24.33
2022-12-04T06:30:12.104Z,24.07
2022-12-04T06:31:36.183Z,26.03
2022-12-04T06:32:58.349Z,24.40
2022-12-04T06:34:20.468Z,24.80
2022-12-04T06:35:42.531Z,25.47
2022-12-04T06:37:04.621Z,25.23
2022-12-04T06:38:26.837Z,25.20
2022-12-04T06:39:49.111Z,24.60
2022-12-04T06:41:13.767Z,24.57
2022-12-04T06:42:35.816Z,26.27
2022-12-04T06:43:58.164Z,26.10
2022-12-04T06:45:20.228Z,25.40
2022-12-04T06:46:46.708Z,27.33
2022-12-04T06:48:09.780Z,25.27
2022-12-04T06:49:31.784Z,27.17
2022-12-04T06:51:01.614Z,26.03
2022-12-04T06:52:23.798Z,26.23
2022-12-04T06:53:46.848Z,27.20
2022-12-04T06:55:09.274Z,26.90
2022-12-04T06:56:33.388Z,26.97
2022-12-04T06:57:55.421Z,27.40
2022-12-04T06:59:17.575Z,25.60
2022-12-04T07:00:39.580Z,28.20
2022-12-04T07:02:01.755Z,25.50
2022-12-04T07:03:25.174Z,28.17
2022-12-04T07:04:47.289Z,27.67
2022-12-04T07:06:20.610Z,27.00
2022-12-04T07:07:42.711Z,26.73
2022-12-04T07:09:09.679Z,26.17
2022-12-04T07:10:31.694Z,27.40
2022-12-04T07:11:54.962Z,25.97
2022-12-04T07:13:17.109Z,28.00
2022-12-04T07:14:39.267Z,27.03
2022-12-04T07:16:03.088Z,26.67
2022-12-04T07:17:25.106Z,28.73
2022-12-04T07:18:50.331Z,28.27
2022-12-04T07:20:12.762Z,27.83
2022-12-04T07:21:34.846Z,28.40
2022-12-04T07:22:56.919Z,27.20
2022-12-04T07:24:19.016Z,26.77
2022-12-04T07:25:41.175Z,28.97
2022-12-04T07:27:04.128Z,27.20
2022-12-04T07:28:26.309Z,26.70
2022-12-04T07:29:48.361Z,24.40
2022-12-04T07:31:12.628Z,27.00
2022-12-04T07:32:34.767Z,26.60
2022-12-04T07:33:57.928Z,23.43
2022-12-04T07:35:20.027Z,24.63
2022-12-04T07:36:42.164Z,25.20
2022-12-04T07:38:04.290Z,23.17
2022-12-04T07:39:26.388Z,23.53
2022-12-04T07:40:48.414Z,24.57
2022-12-04T07:42:10.535Z,23.90
2022-12-04T07:43:33.883Z,25.60
2022-12-04T07:44:55.942Z,25.27
2022-12-04T07:46:22.224Z,22.50
2022-12-04T07:47:44.339Z,24.50
2022-12-04T07:49:06.655Z,23.30
2022-12-04T07:50:28.723Z,23.50
2022-12-04T07:51:50.893Z,23.73
2022-12-04T07:53:13.408Z,22.97
2022-12-04T07:54:36.687Z,22.30
2022-12-04T07:55:58.894Z,22.80
2022-12-04T07:57:21.055Z,24.00
2022-12-04T07:58:44.092Z,23.73
2022-12-04T08:00:07.015Z,22.40
2022-12-04T08:01:29.237Z,22.57
2022-12-04T08:02:51.551Z,23.50
2022-12-04T08:04:14.045Z,22.77
2022-12-04T08:05:36.173Z,21.33
2022-12-04T08:06:58.451Z,21.00
2022-12-04T08:08:20.557Z,21.03
2022-12-04T08:09:42.980Z,21.23
2022-12-04T08:11:10.206Z,22.40
2022-12-04T08:12:33.172Z,22.20
2022-12-04T08:14:04.171Z,21.07
2022-12-04T08:15:26.456Z,19.77
2022-12-04T08:16:52.644Z,20.00
2022-12-04T08:18:15.183Z,20.93
2022-12-04T08:19:37.278Z,20.40
2022-12-04T08:21:13.884Z,21.70
2022-12-04T08:22:35.923Z,20.40
2022-12-04T08:23:59.530Z,20.17
2022-12-04T08:25:21.574Z,21.47
2022-12-04T08:26:43.642Z,20.10
2022-12-04T08:28:06.185Z,20.27
2022-12-04T08:29:28.268Z,18.83
2022-12-04T08:30:50.342Z,19.97
2022-12-04T08:32:12.460Z,17.70
2022-12-04T08:33:35.143Z,19.00
2022-12-04T08:34:57.190Z,17.60
2022-12-04T08:36:21.218Z,18.87
2022-12-04T08:37:43.259Z,19.20
2022-12-04T08:39:06.072Z,19.97
2022-12-04T08:40:28.379Z,19.17
2022-12-04T08:41:56.661Z,19.73
2022-12-04T08:43:19.288Z,18.50
2022-12-04T08:44:41.359Z,17.67
2022-12-04T08:46:09.843Z,17.93
2022-12-04T08:47:31.896Z,20.50
2022-12-04T08:48:54.367Z,20.70
2022-12-04T08:50:16.534Z,20.00
2022-12-04T08:51:39.340Z,19.80
2022-12-04T08:53:01.685Z,20.30
2022-12-04T08:54:23.872Z,18.57
2022-12-04T08:55:46.152Z,19.50
2022-12-04T08:57:08.326Z,21.47
2022-12-04T08:58:30.458Z,20.70
2022-12-04T08:59:52.898Z,19.43
2022-12-04T09:01:16.123Z,19.80
2022-12-04T09:02:38.421Z,18.07
2022-12-04T09:04:00.641Z,17.60
2022-12-04T09:05:22.915Z,17.57
2022-12-04T09:06:45.113Z,17.20
2022-12-04T09:08:07.926Z,16.93
2022-12-04T09:09:30.397Z,17.20
2022-12-04T09:10:52.487Z,16.80
2022-12-04T09:12:14.607Z,17.33
2022-12-04T09:13:37.176Z,16.87
2022-12-04T09:14:59.421Z,18.13
2022-12-04T09:16:23.957Z,19.00
2022-12-04T09:17:46.245Z,17.80
2022-12-04T09:19:08.383Z,17.07
2022-12-04T09:20:30.625Z,17.93
2022-12-04T09:21:52.871Z,16.47
2022-12-04T09:23:15.042Z,16.97
2022-12-04T09:24:37.060Z,15.83
2022-12-04T09:25:59.088Z,15.40
2022-12-04T09:27:21.142Z,16.77
2022-12-04T09:28:43.268Z,17.80
2022-12-04T09:30:06.381Z,17.27
2022-12-04T09:31:28.675Z,18.50
2022-12-04T09:32:50.841Z,19.57
2022-12-04T09:34:13.290Z,18.33
2022-12-04T09:35:35.556Z,19.13
2022-12-04T09:36:57.589Z,19.53
2022-12-04T09:38:20.130Z,19.93
2022-12-04T09:39:42.190Z,20.07
2022-12-04T09:41:22.947Z,21.17
2022-12-04T09:43:08.016Z,19.13
2022-12-04T09:44:35.246Z,18.87
2022-12-04T09:46:04.139Z,17.77
2022-12-04T09:47:43.433Z,19.47
2022-12-04T09:49:14.193Z,18.97
2022-12-04T09:50:43.529Z,18.37
2022-12-04T09:52:31.823Z,17.73
2022-12-04T09:54:05.221Z,18.67
2022-12-04T09:55:38.895Z,21.83
2022-12-04T09:57:10.528Z,19.40
2022-12-04T09:58:53.573Z,20.00
2022-12-04T10:00:18.648Z,19.70
2022-12-04T10:01:53.507Z,21.87
2022-12-04T10:03:18.646Z,19.07
2022-12-04T10:04:40.937Z,20.27
2022-12-04T10:06:11.102Z,21.40
2022-12-04T10:07:54.152Z,19.87
2022-12-04T10:09:20.848Z,19.50
2022-12-04T10:10:56.576Z,18.83
2022-12-04T10:12:36.865Z,20.70
2022-12-04T10:14:36.075Z,20.20
2022-12-04T10:16:16.661Z,18.93
2022-12-04T10:17:53.854Z,19.97
2022-12-04T10:19:30.788Z,20.60
2022-12-04T10:21:01.597Z,20.60
2022-12-04T10:22:56.705Z,20.43
2022-12-04T10:24:41.106Z,18.37
2022-12-04T10:26:05.332Z,19.17
2022-12-04T10:27:34.700Z,19.30
2022-12-04T10:29:08.140Z,18.80
2022-12-04T10:30:34.666Z,22.80
2022-12-04T10:32:05.435Z,19.83
2022-12-04T10:33:53.603Z,20.00
2022-12-04T10:35:19.946Z,17.73
2022-12-04T10:36:45.554Z,19.53
2022-12-04T10:38:22.267Z,19.37
2022-12-04T10:39:54.496Z,19.00
2022-12-04T10:41:50.888Z,17.67
2022-12-04T10:43:28.113Z,19.17
2022-12-04T10:44:50.227Z,18.47
2022-12-04T10:46:29.549Z,17.63
2022-12-04T10:47:53.256Z,17.37
2022-12-04T10:49:18.538Z,18.30
2022-12-04T10:50:40.744Z,18.97
2022-12-04T10:52:04.201Z,21.20
2022-12-04T10:53:36.977Z,19.10
2022-12-04T10:55:01.314Z,19.67
2022-12-04T10:56:26.027Z,19.03
2022-12-04T10:57:48.223Z,20.67
2022-12-04T10:59:15.752Z,18.60
2022-12-04T11:00:37.924Z,19.43
2022-12-04T11:02:20.308Z,21.37
2022-12-04T11:03:53.568Z,19.20
2022-12-04T11:05:32.079Z,20.77
2022-12-04T11:07:04.668Z,22.83
2022-12-04T11:08:40.670Z,20.80
2022-12-04T11:10:07.624Z,21.20
2022-12-04T11:11:34.682Z,20.83
2022-12-04T11:13:02.515Z,21.30
2022-12-04T11:14:24.648Z,22.80
2022-12-04T11:15:47.920Z,22.33
2022-12-04T11:17:19.800Z,21.60
2022-12-04T11:18:50.827Z,20.70
2022-12-04T11:20:22.559Z,21.40
2022-12-04T11:21:45.081Z,22.00
2022-12-04T11:23:07.152Z,22.20
2022-12-04T11:24:35.406Z,23.27
2022-12-04T11:26:05.536Z,23.40
2022-12-04T11:27:34.207Z,22.70
2022-12-04T11:29:01.270Z,23.50
2022-12-04T11:30:32.256Z,22.93
2022-12-04T11:31:58.585Z,20.60
2022-12-04T11:33:33.945Z,22.37
2022-12-04T11:35:17.299Z,22.83
2022-12-04T11:36:41.643Z,23.93
2022-12-04T11:38:15.259Z,23.90
2022-12-04T11:39:41.193Z,21.17
2022-12-04T11:41:04.071Z,23.57
2022-12-04T11:42:29.062Z,23.57
2022-12-04T11:43:55.222Z,21.97
2022-12-04T11:45:22.623Z,22.83
2022-12-04T11:46:56.874Z,21.27
2022-12-04T11:48:19.419Z,24.23
2022-12-04T11:49:44.018Z,23.27
2022-12-04T11:51:21.058Z,24.33
2022-12-04T11:52:48.836Z,22.13
2022-12-04T11:54:26.136Z,24.30
2022-12-04T11:56:13.722Z,26.25
2022-12-04T11:57:53.232Z,25.60
2022-12-04T11:59:31.817Z,23.47
2022-12-04T12:01:12.166Z,24.87
2022-12-04T12:02:55.638Z,23.63
2022-12-04T12:04:49.838Z,23.47
2022-12-04T12:06:36.313Z,24.47
2022-12-04T12:08:35.765Z,24.50
2022-12-04T12:10:03.739Z,22.27
2022-12-04T12:11:32.958Z,24.70
2022-12-04T12:13:22.128Z,25.10
2022-12-04T12:14:59.208Z,28.00
2022-12-04T12:16:55.095Z,26.83
2022-12-04T12:18:55.422Z,24.23
2022-12-04T12:20:26.341Z,25.20
2022-12-04T12:21:55.304Z,24.97
2022-12-04T12:23:42.630Z,26.07
2022-12-04T12:25:19.083Z,23.47
2022-12-04T12:27:07.272Z,24.80
2022-12-04T12:28:48.034Z,25.30
2022-12-04T12:30:15.430Z,23.30
2022-12-04T12:32:19.674Z,26.67
2022-12-04T12:34:10.933Z,23.83
2022-12-04T12:35:40.568Z,23.83
2022-12-04T12:37:21.397Z,23.93
2022-12-04T12:38:56.204Z,26.73
2022-12-04T12:40:47.575Z,24.83
2022-12-04T12:42:23.299Z,27.30
2022-12-04T12:43:53.782Z,25.93
2022-12-04T12:45:24.891Z,27.37
2022-12-04T12:47:08.036Z,24.77
2022-12-04T12:48:46.097Z,25.30
2022-12-04T12:50:25.975Z,26.70
2022-12-04T12:52:01.381Z,27.20
2022-12-04T12:53:29.106Z,25.17
2022-12-04T12:55:20.307Z,25.47
2022-12-04T12:56:50.072Z,26.63
2022-12-04T12:58:47.036Z,27.67
2022-12-04T13:00:21.794Z,25.90
2022-12-04T13:01:59.894Z,24.90
2022-12-04T13:03:25.778Z,26.70
2022-12-04T13:04:53.581Z,26.43
2022-12-04T13:06:20.783Z,26.07
2022-12-04T13:08:03.991Z,26.63
2022-12-04T13:09:32.766Z,25.60
2022-12-04T13:11:07.407Z,25.57
2022-12-04T13:12:31.904Z,25.60
2022-12-04T13:14:03.317Z,26.30
2022-12-04T13:15:49.278Z,26.60
2022-12-04T13:17:34.096Z,27.80
2022-12-04T13:19:17.603Z,25.47
2022-12-04T13:20:50.321Z,25.47
2022-12-04T13:22:16.882Z,25.80
2022-12-04T13:24:00.507Z,27.00
2022-12-04T13:25:59.250Z,27.37
2022-12-04T13:28:01.746Z,28.50
2022-12-04T13:29:57.550Z,25.27
2022-12-04T13:31:42.275Z,25.80
2022-12-04T13:33:23.110Z,26.40
2022-12-04T13:35:04.024Z,25.97
2022-12-04T13:36:41.374Z,27.20
2022-12-04T13:38:24.554Z,24.43
2022-12-04T13:40:33.205Z,24.90
2022-12-04T13:42:01.050Z,26.50
2022-12-04T13:43:29.074Z,25.67
2022-12-04T13:44:57.402Z,26.00
2022-12-04T13:46:39.663Z,25.27
2022-12-04T13:48:03.792Z,27.03
2022-12-04T13:49:31.970Z,25.77
2022-12-04T13:51:03.078Z,23.90
2022-12-04T13:52:40.641Z,24.70
2022-12-04T13:54:21.758Z,26.80
2022-12-04T13:55:54.829Z,24.20
2022-12-04T13:57:16.829Z,29.13
2022-12-04T13:58:38.973Z,26.50
2022-12-04T14:00:24.383Z,25.23
2022-12-04T14:01:49.925Z,27.20
2022-12-04T14:03:29.742Z,26.07
2022-12-04T14:04:59.827Z,23.17
2022-12-04T14:06:27.262Z,26.10
2022-12-04T14:08:07.595Z,25.60
2022-12-04T14:09:39.735Z,25.10
2022-12-04T14:11:07.658Z,24.90
2022-12-04T14:12:35.390Z,26.60
2022-12-04T14:14:02.299Z,26.50
2022-12-04T14:15:31.734Z,26.47
2022-12-04T14:16:55.962Z,23.90
2022-12-04T14:18:30.040Z,25.33
2022-12-04T14:20:07.291Z,26.30
2022-12-04T14:21:45.122Z,26.07
2022-12-04T14:23:38.008Z,27.87
2022-12-04T14:25:13.371Z,29.33
2022-12-04T14:27:03.524Z,27.20
2022-12-04T14:28:37.301Z,28.43
2022-12-04T14:30:04.735Z,25.60
2022-12-04T14:31:33.116Z,25.80
2022-12-04T14:33:20.064Z,26.27
2022-12-04T14:34:42.940Z,26.43
2022-12-04T14:36:09.718Z,25.73
2022-12-04T14:37:40.182Z,25.33
2022-12-04T14:39:12.735Z,24.23
2022-12-04T14:40:42.789Z,23.43
2022-12-04T14:42:16.705Z,26.10
2022-12-04T14:43:44.381Z,23.90
2022-12-04T14:45:25.277Z,24.00
2022-12-04T14:46:51.793Z,25.20
2022-12-04T14:48:41.614Z,23.77
2022-12-04T14:50:34.218Z,24.63
2022-12-04T14:52:18.704Z,23.53
2022-12-04T14:53:44.881Z,23.77
2022-12-04T14:55:45.064Z,25.33
2022-12-04T14:57:35.350Z,23.20
2022-12-04T14:58:58.812Z,24.17
2022-12-04T15:00:22.999Z,24.40
2022-12-04T15:01:48.270Z,23.93
2022-12-04T15:03:13.433Z,22.27
2022-12-04T15:04:35.737Z,22.83
2022-12-04T15:06:04.138Z,22.93
2022-12-04T15:07:30.878Z,25.73
2022-12-04T15:09:17.718Z,23.40
2022-12-04T15:10:59.360Z,24.23
2022-12-04T15:12:33.460Z,22.30
2022-12-04T15:14:05.362Z,24.70
2022-12-04T15:15:29.685Z,24.97
2022-12-04T15:17:02.988Z,21.47
2022-12-04T15:18:25.164Z,23.13
2022-12-04T15:19:47.276Z,22.17
2022-12-04T15:21:11.278Z,24.60
2022-12-04T15:22:33.377Z,24.67
2022-12-04T15:23:55.529Z,25.00
2022-12-04T15:25:25.379Z,22.40
2022-12-04T15:26:48.922Z,24.20
2022-12-04T15:28:31.161Z,22.80
2022-12-04T15:29:56.123Z,24.17
2022-12-04T15:31:28.901Z,22.77
2022-12-04T15:32:53.381Z,22.83
2022-12-04T15:34:17.788Z,22.93
2022-12-04T15:35:45.658Z,22.57
2022-12-04T15:37:18.294Z,24.20
2022-12-04T15:38:40.945Z,23.23
2022-12-04T15:40:08.145Z,23.57
2022-12-04T15:41:33.845Z,23.60
2022-12-04T15:43:13.615Z,22.63
2022-12-04T15:44:36.591Z,22.40
2022-12-04T15:45:59.064Z,22.10
2022-12-04T15:47:24.902Z,24.50
2022-12-04T15:48:48.102Z,22.70
2022-12-04T15:50:15.994Z,23.50
2022-12-04T15:51:38.144Z,22.73
2022-12-04T15:53:05.822Z,22.97
2022-12-04T15:54:28.236Z,22.00
2022-12-04T15:55:59.698Z,22.50
2022-12-04T15:57:36.837Z,20.90
2022-12-04T15:59:01.625Z,20.63
2022-12-04T16:00:23.836Z,20.13
2022-12-04T16:01:46.052Z,22.87
2022-12-04T16:03:30.692Z,22.13
2022-12-04T16:04:52.912Z,21.93
2022-12-04T16:06:25.228Z,20.40
2022-12-04T16:07:51.391Z,22.07
2022-12-04T16:09:24.684Z,23.23
2022-12-04T16:10:58.503Z,22.10
2022-12-04T16:12:26.201Z,22.50
2022-12-04T16:13:50.979Z,20.37
2022-12-04T16:15:13.138Z,23.37
2022-12-04T16:16:42.280Z,22.10
2022-12-04T16:18:06.412Z,22.27
2022-12-04T16:19:35.988Z,23.43
2022-12-04T16:20:58.177Z,22.07
2022-12-04T16:22:23.448Z,23.20
2022-12-04T16:23:45.967Z,21.07
2022-12-04T16:25:11.998Z,21.90
2022-12-04T16:26:34.333Z,22.87
2022-12-04T16:27:56.399Z,22.70
2022-12-04T16:29:18.489Z,20.63
2022-12-04T16:30:40.601Z,21.77
2022-12-04T16:32:03.552Z,22.20
2022-12-04T16:33:25.826Z,21.77
2022-12-04T16:34:48.653Z,21.60
2022-12-04T16:36:11.494Z,24.27
2022-12-04T16:37:33.590Z,19.73
2022-12-04T16:38:55.807Z,19.90
2022-12-04T16:40:18.042Z,20.97
2022-12-04T16:41:40.846Z,21.23
2022-12-04T16:43:03.061Z,20.20
2022-12-04T16:44:25.284Z,21.60
2022-12-04T16:45:51.556Z,23.20
2022-12-04T16:47:15.062Z,21.90
2022-12-04T16:48:37.689Z,19.53
2022-12-04T16:49:59.822Z,20.00
2022-12-04T16:51:24.467Z,19.03
2022-12-04T16:52:46.561Z,19.60
2022-12-04T16:54:11.588Z,18.27
2022-12-04T16:55:38.567Z,20.93
2022-12-04T16:57:00.748Z,20.63
2022-12-04T16:58:22.830Z,19.73
2022-12-04T16:59:44.880Z,19.93
2022-12-04T17:01:24.030Z,19.70
2022-12-04T17:02:46.882Z,20.10
2022-12-04T17:04:10.117Z,20.50
2022-12-04T17:05:35.745Z,19.80
2022-12-04T17:06:57.792Z,19.97
2022-12-04T17:08:20.156Z,18.57
2022-12-04T17:09:42.287Z,20.07
2022-12-04T17:11:04.367Z,19.77
2022-12-04T17:12:26.561Z,18.63
2022-12-04T17:13:48.631Z,19.10
2022-12-04T17:15:12.522Z,19.80
2022-12-04T17:16:39.180Z,18.60
2022-12-04T17:18:04.789Z,19.43
2022-12-04T17:19:31.142Z,19.03
2022-12-04T17:20:53.396Z,17.63
2022-12-04T17:22:16.215Z,18.73
2022-12-04T17:23:38.465Z,17.97
2022-12-04T17:25:00.813Z,19.80
2022-12-04T17:26:23.156Z,18.93
2022-12-04T17:27:45.654Z,19.13
2022-12-04T17:29:07.757Z,18.90
2022-12-04T17:30:34.379Z,20.63
2022-12-04T17:31:58.040Z,20.10
2022-12-04T17:33:20.101Z,20.00
2022-12-04T17:34:42.191Z,19.73
2022-12-04T17:36:09.555Z,20.47
2022-12-04T17:37:33.344Z,20.97
2022-12-04T17:38:57.082Z,19.10
2022-12-04T17:40:19.299Z,19.67
2022-12-04T17:41:41.341Z,23.27
2022-12-04T17:43:03.831Z,21.70
2022-12-04T17:44:26.011Z,21.57
2022-12-04T17:45:48.068Z,21.50
2022-12-04T17:47:10.695Z,23.07
2022-12-04T17:48:32.776Z,21.27
2022-12-04T17:49:54.934Z,24.37
2022-12-04T17:51:20.313Z,20.97
2022-12-04T17:52:42.365Z,20.50
2022-12-04T17:54:05.807Z,20.90
2022-12-04T17:55:27.866Z,21.37
2022-12-04T17:56:56.146Z,19.40
2022-12-04T17:58:19.708Z,22.33
2022-12-04T17:59:41.962Z,20.93
2022-12-04T18:01:09.732Z,20.43
2022-12-04T18:02:31.913Z,20.27
2022-12-04T18:03:57.048Z,21.23
2022-12-04T18:05:19.175Z,19.73
2022-12-04T18:06:43.144Z,21.07
2022-12-04T18:08:05.334Z,19.67
2022-12-04T18:09:27.644Z,21.33
2022-12-04T18:10:50.289Z,20.50
2022-12-04T18:12:14.357Z,19.87
2022-12-04T18:13:36.865Z,20.70
2022-12-04T18:14:59.218Z,23.17
2022-12-04T18:16:22.080Z,21.43
2022-12-04T18:17:44.270Z,20.70
2022-12-04T18:19:07.126Z,22.33
2022-12-04T18:20:29.181Z,20.03
2022-12-04T18:21:51.349Z,21.50
2022-12-04T18:23:13.849Z,21.73
2022-12-04T18:24:36.047Z,22.63
2022-12-04T18:25:59.732Z,20.63
2022-12-04T18:27:21.830Z,22.17
2022-12-04T18:28:44.828Z,22.07
2022-12-04T18:30:07.590Z,20.63
2022-12-04T18:31:29.744Z,21.37
2022-12-04T18:32:55.032Z,20.50
2022-12-04T18:34:17.661Z,21.90
2022-12-04T18:35:39.770Z,21.17
2022-12-04T18:37:01.888Z,23.97
2022-12-04T18:38:25.155Z,21.47
2022-12-04T18:39:49.784Z,20.60
2022-12-04T18:41:13.891Z,21.10
2022-12-04T18:42:36.047Z,21.37
2022-12-04T18:43:58.955Z,23.60
2022-12-04T18:45:22.418Z,22.60
2022-12-04T18:46:44.618Z,21.30
2022-12-04T18:48:06.832Z,23.00
2022-12-04T18:49:28.896Z,21.63
2022-12-04T18:50:50.953Z,21.97
2022-12-04T18:52:13.003Z,22.43
2022-12-04T18:53:35.156Z,22.37
2022-12-04T18:54:57.357Z,21.67
2022-12-04T18:56:20.209Z,22.40